createdAt,value
2018-07-10T00:00:30.851Z,19.26
2018-07-10T00:06:20.984Z,19.23
2018-07-10T00:10:26.519Z,19.07
2018-07-10T00:12:58.751Z,19.07
2018-07-10T00:15:30.974Z,19.05
2018-07-10T00:18:03.184Z,19.10
2018-07-10T00:20:35.443Z,19.08
2018-07-10T00:23:07.553Z,19.05
2018-07-10T00:25:39.744Z,19.06
2018-07-10T00:28:11.884Z,19.09
2018-07-10T00:30:44.074Z,18.93
2018-07-10T00:33:16.250Z,18.91
2018-07-10T00:35:48.480Z,18.88
2018-07-10T00:38:32.149Z,18.93
2018-07-10T00:41:04.419Z,18.86
2018-07-10T00:43:36.637Z,18.86
2018-07-10T00:46:08.865Z,18.81
2018-07-10T00:48:41.048Z,18.88
2018-07-10T00:51:13.254Z,18.83
2018-07-10T00:53:45.427Z,18.76
2018-07-10T00:56:17.617Z,18.80
2018-07-10T00:58:50.909Z,18.78
2018-07-10T01:01:23.859Z,18.67
2018-07-10T01:03:56.041Z,18.63
2018-07-10T01:06:28.208Z,18.64
2018-07-10T01:09:00.404Z,18.61
2018-07-10T01:11:32.679Z,18.68
2018-07-10T01:14:05.050Z,18.66
2018-07-10T01:16:38.329Z,18.66
2018-07-10T01:19:12.037Z,18.70
2018-07-10T01:21:44.921Z,18.66
2018-07-10T01:24:17.368Z,18.67
2018-07-10T01:26:49.884Z,18.61
2018-07-10T01:29:27.593Z,18.56
2018-07-10T01:31:59.833Z,18.55
2018-07-10T01:34:32.002Z,18.65
2018-07-10T01:37:04.255Z,18.60
2018-07-10T01:39:36.446Z,18.49
2018-07-10T01:42:08.629Z,18.48
2018-07-10T01:44:40.883Z,18.43
2018-07-10T01:47:13.036Z,18.36
2018-07-10T01:49:45.182Z,18.38
2018-07-10T01:52:17.539Z,18.29
2018-07-10T01:54:49.745Z,18.26
2018-07-10T01:57:22.970Z,18.15
2018-07-10T01:59:55.502Z,18.13
2018-07-10T02:02:27.723Z,18.09
2018-07-10T02:05:00.485Z,18.10
2018-07-10T02:07:32.568Z,18.09
2018-07-10T02:10:04.670Z,18.10
2018-07-10T02:12:36.853Z,18.08
2018-07-10T02:15:09.011Z,18.07
2018-07-10T02:17:41.227Z,18.01
2018-07-10T02:20:13.473Z,17.95
2018-07-10T02:22:46.463Z,17.90
2018-07-10T02:25:18.920Z,17.89
2018-07-10T02:27:51.191Z,17.87
2018-07-10T02:30:23.358Z,17.94
2018-07-10T02:32:55.506Z,18.04
2018-07-10T02:35:27.635Z,18.04
2018-07-10T02:38:00.561Z,18.02
2018-07-10T02:40:33.570Z,17.96
2018-07-10T02:43:06.018Z,17.88
2018-07-10T02:45:38.213Z,17.76
2018-07-10T02:48:10.443Z,17.78
2018-07-10T02:50:42.944Z,17.71
2018-07-10T02:53:15.044Z,17.62
2018-07-10T02:55:47.257Z,17.67
2018-07-10T02:58:23.431Z,17.58
2018-07-10T03:00:55.756Z,17.50
2018-07-10T03:03:28.001Z,17.55
2018-07-10T03:06:01.341Z,17.51
2018-07-10T03:08:33.640Z,17.66
2018-07-10T03:11:06.453Z,17.69
2018-07-10T03:13:39.765Z,17.67
2018-07-10T03:16:12.292Z,17.67
2018-07-10T03:18:44.516Z,17.73
2018-07-10T03:21:16.702Z,17.67
2018-07-10T03:23:48.848Z,17.74
2018-07-10T03:26:20.994Z,17.75
2018-07-10T03:28:53.291Z,17.64
2018-07-10T03:31:25.530Z,17.74
2018-07-10T03:33:57.701Z,17.72
2018-07-10T03:36:29.973Z,17.62
2018-07-10T03:39:02.835Z,17.67
2018-07-10T03:41:35.057Z,17.64
2018-07-10T03:44:07.292Z,17.70
2018-07-10T03:46:40.175Z,17.70
2018-07-10T03:49:13.339Z,17.65
2018-07-10T03:51:46.590Z,17.38
2018-07-10T03:54:18.796Z,17.54
2018-07-10T03:56:50.970Z,17.59
2018-07-10T03:59:23.344Z,17.59
2018-07-10T04:01:55.493Z,17.57
2018-07-10T04:04:27.655Z,17.56
2018-07-10T04:06:59.846Z,17.53
2018-07-10T04:09:32.034Z,17.60
2018-07-10T04:12:04.518Z,17.68
2018-07-10T04:14:36.742Z,17.74
2018-07-10T04:17:09.763Z,17.84
2018-07-10T04:19:42.693Z,17.89
2018-07-10T04:22:16.250Z,17.89
2018-07-10T04:24:48.494Z,17.86
2018-07-10T04:27:27.022Z,17.85
2018-07-10T04:30:06.904Z,17.91
2018-07-10T04:32:40.155Z,18.11
2018-07-10T04:35:14.112Z,18.26
2018-07-10T04:37:48.587Z,18.37
2018-07-10T04:40:20.884Z,18.44
2018-07-10T04:42:58.279Z,18.41
2018-07-10T04:45:37.706Z,18.49
2018-07-10T04:48:14.759Z,18.47
2018-07-10T04:50:51.995Z,18.64
2018-07-10T04:53:34.654Z,18.63
2018-07-10T04:56:06.868Z,18.64
2018-07-10T04:58:40.116Z,18.72
2018-07-10T05:01:13.413Z,18.68
2018-07-10T05:03:45.642Z,18.71
2018-07-10T05:06:17.855Z,18.78
2018-07-10T05:08:50.007Z,18.90
2018-07-10T05:11:22.927Z,18.95
2018-07-10T05:13:55.156Z,19.05
2018-07-10T05:16:27.341Z,19.14
2018-07-10T05:19:00.256Z,18.92
2018-07-10T05:21:32.616Z,19.01
2018-07-10T05:24:04.958Z,19.02
2018-07-10T05:26:37.202Z,19.16
2018-07-10T05:29:09.428Z,19.12
2018-07-10T05:31:41.604Z,19.41
2018-07-10T05:34:13.912Z,19.50
2018-07-10T05:36:46.222Z,19.42
2018-07-10T05:39:18.424Z,19.45
2018-07-10T05:41:50.685Z,19.56
2018-07-10T05:44:22.877Z,19.48
2018-07-10T05:47:00.327Z,19.52
2018-07-10T05:49:35.683Z,19.67
2018-07-10T05:52:08.388Z,19.82
2018-07-10T05:54:42.130Z,19.90
2018-07-10T05:57:14.340Z,19.53
2018-07-10T05:59:46.516Z,19.62
2018-07-10T06:02:18.731Z,19.73
2018-07-10T06:04:52.112Z,19.67
2018-07-10T06:07:24.308Z,19.72
2018-07-10T06:09:56.541Z,20.07
2018-07-10T06:12:28.692Z,20.03
2018-07-10T06:15:05.518Z,20.42
2018-07-10T06:17:37.741Z,20.45
2018-07-10T06:20:09.871Z,20.38
2018-07-10T06:22:41.982Z,20.60
2018-07-10T06:25:14.193Z,20.71
2018-07-10T06:27:57.554Z,20.91
2018-07-10T06:30:29.668Z,21.08
2018-07-10T06:33:05.206Z,20.82
2018-07-10T06:35:43.138Z,20.80
2018-07-10T06:38:17.748Z,20.69
2018-07-10T06:40:50.763Z,20.97
2018-07-10T06:43:31.439Z,21.23
2018-07-10T06:46:03.641Z,21.25
2018-07-10T06:48:36.696Z,21.22
2018-07-10T06:51:12.877Z,21.15
2018-07-10T06:53:47.087Z,21.11
2018-07-10T06:56:25.516Z,21.34
2018-07-10T06:58:57.901Z,21.59
2018-07-10T07:01:30.017Z,21.95
2018-07-10T07:04:05.413Z,22.22
2018-07-10T07:06:37.547Z,22.33
2018-07-10T07:09:09.715Z,22.24
2018-07-10T07:11:41.875Z,22.13
2018-07-10T07:14:14.160Z,21.93
2018-07-10T07:16:46.424Z,22.21
2018-07-10T07:19:24.994Z,21.99
2018-07-10T07:21:57.266Z,22.39
2018-07-10T07:24:29.576Z,22.60
2018-07-10T07:27:01.814Z,22.89
2018-07-10T07:29:34.020Z,23.33
2018-07-10T07:32:06.190Z,23.23
2018-07-10T07:34:38.363Z,23.08
2018-07-10T07:37:10.644Z,23.26
2018-07-10T07:39:43.984Z,22.83
2018-07-10T07:42:17.203Z,22.65
2018-07-10T07:44:51.270Z,23.00
2018-07-10T07:47:29.943Z,23.54
2018-07-10T07:50:02.204Z,23.91
2018-07-10T07:52:34.420Z,24.27
2018-07-10T07:55:06.514Z,24.85
2018-07-10T07:57:38.710Z,26.14
2018-07-10T08:00:12.686Z,27.47
2018-07-10T08:02:44.905Z,28.78
2018-07-10T08:05:19.208Z,29.10
2018-07-10T08:07:51.431Z,30.04
2018-07-10T08:10:23.718Z,30.46
2018-07-10T08:12:55.921Z,31.01
2018-07-10T08:15:28.167Z,30.07
2018-07-10T08:18:00.365Z,28.01
2018-07-10T08:20:32.525Z,28.02
2018-07-10T08:23:04.985Z,26.13
2018-07-10T08:25:37.159Z,26.34
2018-07-10T08:28:09.760Z,27.35
2018-07-10T08:30:41.999Z,28.05
2018-07-10T08:33:14.235Z,27.76
2018-07-10T08:35:46.399Z,27.71
2018-07-10T08:38:44.215Z,27.06
2018-07-10T08:41:20.535Z,27.36
2018-07-10T08:43:53.069Z,28.87
2018-07-10T08:46:28.452Z,29.03
2018-07-10T08:49:00.721Z,29.86
2018-07-10T08:51:33.099Z,29.76
2018-07-10T08:54:05.312Z,30.17
2018-07-10T08:56:37.509Z,30.19
2018-07-10T08:59:10.934Z,29.16
2018-07-10T09:01:43.658Z,29.02
2018-07-10T09:04:16.716Z,29.44
2018-07-10T09:06:48.847Z,29.65
2018-07-10T09:09:21.044Z,30.48
2018-07-10T09:11:53.159Z,29.99
2018-07-10T09:14:25.306Z,29.72
2018-07-10T09:16:57.394Z,30.25
2018-07-10T09:19:30.362Z,30.79
2018-07-10T09:22:05.905Z,31.05
2018-07-10T09:24:50.118Z,31.17
2018-07-10T09:27:23.013Z,30.99
2018-07-10T09:29:55.115Z,30.79
2018-07-10T09:32:32.906Z,30.70
2018-07-10T09:35:05.488Z,30.80
2018-07-10T09:37:44.788Z,31.14
2018-07-10T09:40:18.015Z,32.06
2018-07-10T09:42:55.640Z,31.40
2018-07-10T09:45:31.507Z,31.13
2018-07-10T09:48:04.651Z,29.78
2018-07-10T09:50:37.229Z,28.27
2018-07-10T09:53:09.382Z,28.94
2018-07-10T09:55:41.525Z,28.53
2018-07-10T09:58:13.642Z,29.06
2018-07-10T10:00:51.297Z,28.52
2018-07-10T10:03:23.525Z,29.43
2018-07-10T10:05:56.108Z,30.12
2018-07-10T10:08:28.309Z,31.47
2018-07-10T10:11:00.687Z,30.47
2018-07-10T10:13:32.882Z,30.56
2018-07-10T10:16:05.042Z,30.35
2018-07-10T10:18:37.186Z,32.02
2018-07-10T10:21:09.410Z,32.22
2018-07-10T10:23:42.036Z,31.95
2018-07-10T10:26:14.231Z,32.03
2018-07-10T10:28:46.380Z,31.44
2018-07-10T10:31:18.553Z,31.04
2018-07-10T10:33:50.694Z,30.77
2018-07-10T10:36:22.897Z,31.48
2018-07-10T10:38:55.066Z,30.50
2018-07-10T10:41:27.794Z,30.13
2018-07-10T10:44:00.098Z,29.11
2018-07-10T10:46:32.586Z,29.16
2018-07-10T10:49:05.851Z,29.15
2018-07-10T10:51:38.076Z,29.09
2018-07-10T10:54:10.252Z,29.37
2018-07-10T10:56:42.407Z,29.18
2018-07-10T10:59:14.576Z,29.27
2018-07-10T11:01:46.733Z,28.77
2018-07-10T11:04:18.867Z,29.04
2018-07-10T11:06:51.260Z,29.08
2018-07-10T11:09:23.349Z,27.90
2018-07-10T11:11:56.143Z,27.61
2018-07-10T11:14:28.299Z,26.81
2018-07-10T11:17:01.262Z,24.93
2018-07-10T11:20:19.368Z,24.23
2018-07-10T11:23:03.617Z,19.45
2018-07-10T11:25:41.601Z,17.98
2018-07-10T11:28:14.178Z,17.28
2018-07-10T11:30:46.305Z,17.44
2018-07-10T11:33:18.420Z,17.36
2018-07-10T11:35:50.522Z,17.40
2018-07-10T11:38:22.666Z,17.34
2018-07-10T11:40:54.839Z,17.50
2018-07-10T11:43:27.049Z,17.54
2018-07-10T11:45:59.132Z,17.46
2018-07-10T11:48:31.196Z,17.45
2018-07-10T11:51:03.313Z,17.25
2018-07-10T11:53:36.437Z,17.28
2018-07-10T11:56:08.605Z,17.25
2018-07-10T11:58:40.812Z,17.18
2018-07-10T12:01:12.971Z,17.38
2018-07-10T12:03:45.460Z,17.87
2018-07-10T12:06:18.798Z,18.43
2018-07-10T12:08:58.163Z,19.32
2018-07-10T12:11:31.080Z,19.98
2018-07-10T12:14:03.348Z,20.71
2018-07-10T12:16:35.584Z,21.44
2018-07-10T12:19:07.757Z,22.35
2018-07-10T12:21:39.982Z,22.98
2018-07-10T12:24:12.173Z,23.56
2018-07-10T12:26:44.422Z,23.40
2018-07-10T12:29:16.600Z,24.52
2018-07-10T12:31:48.799Z,24.22
2018-07-10T12:34:20.956Z,23.58
2018-07-10T12:36:53.384Z,24.16
2018-07-10T12:39:25.549Z,25.04
2018-07-10T12:41:57.788Z,23.82
2018-07-10T12:44:29.952Z,23.27
2018-07-10T12:47:02.117Z,23.64
2018-07-10T12:49:34.361Z,24.29
2018-07-10T12:52:06.489Z,24.99
2018-07-10T12:54:38.701Z,24.87
2018-07-10T12:57:11.239Z,25.12
2018-07-10T12:59:43.432Z,24.93
2018-07-10T13:02:15.616Z,24.05
2018-07-10T13:04:48.077Z,22.99
2018-07-10T13:07:20.463Z,23.12
2018-07-10T13:09:52.790Z,23.06
2018-07-10T13:12:24.957Z,22.74
2018-07-10T13:14:57.216Z,21.91
2018-07-10T13:17:29.904Z,21.33
2018-07-10T13:20:03.500Z,21.24
2018-07-10T13:22:35.709Z,20.72
2018-07-10T13:25:07.982Z,20.11
2018-07-10T13:27:40.163Z,19.47
2018-07-10T13:30:12.341Z,19.03
2018-07-10T13:32:44.578Z,18.85
2018-07-10T13:35:16.744Z,18.52
2018-07-10T13:37:48.934Z,18.29
2018-07-10T13:40:21.118Z,18.08
2018-07-10T13:42:57.248Z,17.96
2018-07-10T13:45:30.416Z,18.03
2018-07-10T13:48:02.649Z,17.89
2018-07-10T13:50:34.869Z,17.84
2018-07-10T13:53:07.062Z,18.10
2018-07-10T13:55:39.289Z,18.76
2018-07-10T13:58:16.902Z,19.31
2018-07-10T14:01:05.723Z,19.75
2018-07-10T14:03:38.079Z,20.06
2018-07-10T14:06:10.208Z,19.77
2018-07-10T14:08:42.706Z,19.87
2018-07-10T14:11:14.825Z,19.60
2018-07-10T14:13:47.421Z,19.70
2018-07-10T14:16:19.793Z,19.83
2018-07-10T14:18:55.852Z,20.35
2018-07-10T14:21:28.014Z,20.63
2018-07-10T14:24:00.188Z,21.16
2018-07-10T14:26:32.427Z,21.47
2018-07-10T14:29:04.593Z,21.78
2018-07-10T14:31:36.768Z,21.96
2018-07-10T14:34:08.913Z,22.00
2018-07-10T14:36:41.234Z,21.54
2018-07-10T14:39:13.456Z,21.48
2018-07-10T14:41:46.234Z,22.16
2018-07-10T14:44:18.451Z,22.23
2018-07-10T14:46:50.689Z,22.12
2018-07-10T14:49:23.120Z,22.36
2018-07-10T14:51:56.311Z,22.70
2018-07-10T14:54:28.886Z,23.29
2018-07-10T14:57:01.119Z,23.82
2018-07-10T14:59:33.767Z,23.94
2018-07-10T15:02:05.900Z,24.33
2018-07-10T15:04:38.814Z,24.42
2018-07-10T15:07:11.170Z,24.44
2018-07-10T15:09:43.266Z,24.28
2018-07-10T15:12:15.447Z,23.80
2018-07-10T15:14:48.429Z,24.34
2018-07-10T15:17:26.303Z,24.71
2018-07-10T15:19:58.591Z,24.64
2018-07-10T15:22:30.802Z,24.23
2018-07-10T15:25:03.093Z,24.64
2018-07-10T15:27:35.283Z,26.43
2018-07-10T15:30:07.595Z,26.27
2018-07-10T15:32:39.663Z,25.71
2018-07-10T15:35:11.804Z,25.17
2018-07-10T15:37:43.935Z,23.65
2018-07-10T15:40:16.129Z,23.18
2018-07-10T15:42:48.353Z,22.64
2018-07-10T15:45:20.433Z,22.30
2018-07-10T15:47:53.693Z,21.80
2018-07-10T15:50:25.863Z,21.41
2018-07-10T15:52:58.029Z,21.07
2018-07-10T15:55:30.259Z,20.75
2018-07-10T15:58:02.468Z,20.66
2018-07-10T16:00:34.750Z,20.79
2018-07-10T16:03:06.869Z,20.57
2018-07-10T16:05:39.063Z,20.40
2018-07-10T16:08:16.730Z,20.09
2018-07-10T16:10:55.853Z,19.99
2018-07-10T16:13:30.024Z,19.98
2018-07-10T16:16:02.182Z,19.90
2018-07-10T16:18:34.717Z,20.00
2018-07-10T16:21:06.838Z,20.29
2018-07-10T16:23:40.044Z,20.35
2018-07-10T16:26:23.233Z,20.25
2018-07-10T16:28:55.347Z,20.52
2018-07-10T16:31:27.572Z,20.54
2018-07-10T16:33:59.639Z,20.56
2018-07-10T16:36:31.739Z,20.42
2018-07-10T16:39:04.187Z,20.45
2018-07-10T16:41:42.077Z,20.45
2018-07-10T16:44:14.280Z,20.50
2018-07-10T16:46:53.542Z,20.61
2018-07-10T16:49:28.721Z,20.73
2018-07-10T16:52:17.999Z,20.46
2018-07-10T16:54:50.164Z,20.64
2018-07-10T16:57:22.335Z,20.95
2018-07-10T16:59:55.015Z,21.16
2018-07-10T17:02:28.619Z,20.95
2018-07-10T17:05:00.854Z,20.88
2018-07-10T17:07:33.106Z,20.71
2018-07-10T17:10:05.398Z,20.71
2018-07-10T17:12:37.474Z,20.77
2018-07-10T17:15:09.708Z,20.59
2018-07-10T17:17:41.841Z,20.56
2018-07-10T17:20:15.311Z,20.56
2018-07-10T17:22:47.558Z,20.10
2018-07-10T17:25:19.787Z,20.27
2018-07-10T17:27:52.153Z,20.36
2018-07-10T17:30:24.394Z,20.07
2018-07-10T17:32:56.657Z,19.70
2018-07-10T17:35:28.852Z,19.64
2018-07-10T17:38:01.022Z,19.57
2018-07-10T17:40:33.231Z,19.83
2018-07-10T17:43:06.461Z,20.34
2018-07-10T17:45:38.645Z,20.85
2018-07-10T17:48:10.896Z,20.67
2018-07-10T17:50:43.131Z,20.56
2018-07-10T17:53:15.354Z,20.05
2018-07-10T17:55:47.525Z,19.90
2018-07-10T17:58:20.873Z,19.81
2018-07-10T18:00:53.020Z,19.79
2018-07-10T18:03:25.292Z,19.80
2018-07-10T18:05:57.455Z,19.85
2018-07-10T18:08:29.665Z,19.72
2018-07-10T18:11:01.834Z,19.38
2018-07-10T18:13:34.074Z,19.20
2018-07-10T18:16:06.249Z,18.95
2018-07-10T18:18:38.776Z,18.84
2018-07-10T18:21:11.015Z,18.75
2018-07-10T18:23:43.211Z,18.69
2018-07-10T18:26:15.419Z,18.63
2018-07-10T18:28:47.565Z,18.76
2018-07-10T18:31:19.802Z,18.77
2018-07-10T18:33:52.233Z,18.73
2018-07-10T18:36:24.405Z,18.67
2018-07-10T18:38:56.629Z,18.75
2018-07-10T18:41:28.917Z,18.62
2018-07-10T18:44:01.618Z,18.42
2018-07-10T18:46:33.849Z,18.19
2018-07-10T18:49:06.067Z,17.98
2018-07-10T18:51:38.315Z,17.83
2018-07-10T18:54:10.728Z,17.67
2018-07-10T18:56:43.067Z,17.51
2018-07-10T18:59:18.464Z,17.36
2018-07-10T19:01:59.077Z,17.28
2018-07-10T19:04:45.995Z,17.14
2018-07-10T19:07:18.226Z,16.95
2018-07-10T19:09:50.713Z,16.84
2018-07-10T19:12:23.431Z,16.87
2018-07-10T19:14:55.579Z,16.84
2018-07-10T19:17:30.664Z,16.70
2018-07-10T19:20:09.585Z,16.66
2018-07-10T19:22:56.693Z,16.50
2018-07-10T19:25:29.290Z,16.31
2018-07-10T19:28:02.212Z,16.16
2018-07-10T19:30:47.422Z,15.97
2018-07-10T19:33:19.534Z,15.97
2018-07-10T19:35:51.880Z,15.88
2018-07-10T19:38:24.039Z,15.86
2018-07-10T19:40:56.198Z,15.77
2018-07-10T19:43:28.366Z,15.66
2018-07-10T19:46:00.535Z,15.52
2018-07-10T19:48:33.494Z,15.42
2018-07-10T19:51:08.971Z,15.39
2018-07-10T19:53:42.335Z,15.34
2018-07-10T19:56:14.474Z,15.29
2018-07-10T19:58:46.615Z,15.28
2018-07-10T20:01:28.779Z,15.26
2018-07-10T20:04:06.887Z,15.20
2018-07-10T20:06:51.498Z,15.09
2018-07-10T20:09:25.305Z,14.88
2018-07-10T20:12:06.153Z,14.63
2018-07-10T20:14:48.447Z,14.36
2018-07-10T20:17:21.717Z,14.30
2018-07-10T20:19:59.785Z,14.20
2018-07-10T20:22:41.449Z,14.17
2018-07-10T20:25:33.012Z,14.27
2018-07-10T20:28:12.195Z,14.29
2018-07-10T20:30:54.632Z,14.28
2018-07-10T20:33:37.380Z,14.27
2018-07-10T20:36:09.953Z,14.34
2018-07-10T20:38:42.167Z,14.36
2018-07-10T20:41:14.353Z,14.27
2018-07-10T20:43:50.515Z,14.25
2018-07-10T20:46:24.162Z,14.27
2018-07-10T20:49:04.459Z,14.10
2018-07-10T20:52:05.105Z,13.92
2018-07-10T20:54:43.193Z,13.88
2018-07-10T20:57:35.840Z,13.87
2018-07-10T21:00:11.342Z,13.76
2018-07-10T21:03:50.237Z,13.61
2018-07-10T21:06:31.313Z,13.71
2018-07-10T21:09:11.032Z,13.79
2018-07-10T21:11:54.477Z,13.65
2018-07-10T21:15:04.607Z,13.46
2018-07-10T21:17:44.964Z,13.25
2018-07-10T21:20:29.551Z,13.19
2018-07-10T21:23:17.444Z,13.13
2018-07-10T21:25:57.179Z,13.25
2018-07-10T21:28:44.220Z,13.12
2018-07-10T21:31:21.220Z,13.07
2018-07-10T21:34:00.896Z,13.11
2018-07-10T21:37:43.164Z,13.05
2018-07-10T21:40:31.197Z,13.00
2018-07-10T21:43:19.702Z,12.97
2018-07-10T21:46:57.451Z,12.87
2018-07-10T21:49:42.031Z,12.89
2018-07-10T21:52:14.205Z,12.80
2018-07-10T21:54:46.319Z,12.81
2018-07-10T21:57:23.611Z,12.78
2018-07-10T21:59:57.008Z,12.63
2018-07-10T22:02:29.426Z,12.69
2018-07-10T22:05:01.649Z,12.80
2018-07-10T22:07:33.934Z,12.77
2018-07-10T22:10:07.435Z,12.73
2018-07-10T22:12:43.088Z,12.73
2018-07-10T22:15:15.346Z,12.49
2018-07-10T22:17:47.556Z,12.35
2018-07-10T22:20:20.247Z,12.35
2018-07-10T22:22:52.423Z,12.32
2018-07-10T22:25:24.565Z,12.26
2018-07-10T22:27:56.751Z,12.31
2018-07-10T22:30:34.624Z,12.31
2018-07-10T22:33:06.889Z,12.30
2018-07-10T22:35:39.131Z,12.30
2018-07-10T22:38:11.313Z,12.23
2018-07-10T22:40:45.434Z,12.14
2018-07-10T22:43:17.629Z,12.05
2018-07-10T22:45:49.759Z,11.94
2018-07-10T22:48:21.967Z,11.85
2018-07-10T22:50:54.137Z,11.95
2018-07-10T22:53:26.347Z,11.99
2018-07-10T22:55:58.538Z,11.95
2018-07-10T22:58:30.731Z,11.98
2018-07-10T23:01:02.902Z,11.91
2018-07-10T23:03:35.157Z,11.79
2018-07-10T23:06:07.293Z,11.70
2018-07-10T23:08:39.490Z,11.55
2018-07-10T23:11:12.788Z,11.47
2018-07-10T23:13:46.419Z,11.38
2018-07-10T23:16:18.623Z,11.27
2018-07-10T23:18:51.316Z,11.20
2018-07-10T23:21:23.492Z,11.21
2018-07-10T23:23:55.735Z,11.16
2018-07-10T23:26:27.960Z,11.08
2018-07-10T23:29:00.193Z,11.04
2018-07-10T23:31:32.996Z,10.95
2018-07-10T23:34:17.044Z,10.96
2018-07-10T23:36:54.678Z,11.09
2018-07-10T23:39:32.232Z,11.06
2018-07-10T23:42:09.727Z,11.14
2018-07-10T23:44:45.477Z,11.13
2018-07-10T23:47:26.836Z,11.18
2018-07-10T23:50:07.148Z,11.13
2018-07-10T23:52:54.614Z,11.02
2018-07-10T23:55:26.806Z,11.03
2018-07-10T23:57:58.992Z,11.12
